sensor_id;sensor_type;location;lat;lon;timestamp;P1;durP1;ratioP1;P2;durP2;ratioP2
40637;SDS011;26336;44.696;10.622;2023-03-23T00:01:15;23.42;;;17.55;;
40637;SDS011;26336;44.696;10.622;2023-03-23T00:04:23;23.73;;;17.80;;
40637;SDS011;26336;44.696;10.622;2023-03-23T00:07:30;21.13;;;16.65;;
40637;SDS011;26336;44.696;10.622;2023-03-23T00:10:37;21.27;;;15.65;;
40637;SDS011;26336;44.696;10.622;2023-03-23T00:13:41;24.67;;;16.85;;
40637;SDS011;26336;44.696;10.622;2023-03-23T00:16:46;19.45;;;14.00;;
40637;SDS011;26336;44.696;10.622;2023-03-23T00:19:51;17.55;;;12.88;;
40637;SDS011;26336;44.696;10.622;2023-03-23T00:22:56;17.42;;;13.90;;
40637;SDS011;26336;44.696;10.622;2023-03-23T00:26:03;18.80;;;14.85;;
40637;SDS011;26336;44.696;10.622;2023-03-23T00:29:08;17.73;;;14.68;;
40637;SDS011;26336;44.696;10.622;2023-03-23T00:32:27;17.63;;;12.95;;
40637;SDS011;26336;44.696;10.622;2023-03-23T00:35:31;18.17;;;13.55;;
40637;SDS011;26336;44.696;10.622;2023-03-23T00:38:36;16.08;;;13.00;;
40637;SDS011;26336;44.696;10.622;2023-03-23T00:41:41;16.55;;;11.73;;
40637;SDS011;26336;44.696;10.622;2023-03-23T00:44:45;14.10;;;10.25;;
40637;SDS011;26336;44.696;10.622;2023-03-23T00:47:49;13.60;;;10.80;;
40637;SDS011;26336;44.696;10.622;2023-03-23T00:50:54;14.57;;;10.95;;
40637;SDS011;26336;44.696;10.622;2023-03-23T00:53:59;16.15;;;11.07;;
40637;SDS011;26336;44.696;10.622;2023-03-23T00:57:03;12.43;;;10.35;;
40637;SDS011;26336;44.696;10.622;2023-03-23T01:00:08;12.40;;;9.77;;
40637;SDS011;26336;44.696;10.622;2023-03-23T01:03:14;13.25;;;9.85;;
40637;SDS011;26336;44.696;10.622;2023-03-23T01:06:21;12.40;;;9.75;;
40637;SDS011;26336;44.696;10.622;2023-03-23T01:09:25;12.30;;;10.00;;
40637;SDS011;26336;44.696;10.622;2023-03-23T01:12:30;12.85;;;10.07;;
40637;SDS011;26336;44.696;10.622;2023-03-23T01:15:34;11.98;;;9.50;;
40637;SDS011;26336;44.696;10.622;2023-03-23T01:18:39;11.18;;;9.35;;
40637;SDS011;26336;44.696;10.622;2023-03-23T01:21:43;11.20;;;9.52;;
40637;SDS011;26336;44.696;10.622;2023-03-23T01:24:47;12.27;;;9.45;;
40637;SDS011;26336;44.696;10.622;2023-03-23T01:27:51;12.02;;;9.15;;
40637;SDS011;26336;44.696;10.622;2023-03-23T01:30:59;11.38;;;9.32;;
40637;SDS011;26336;44.696;10.622;2023-03-23T01:34:08;12.47;;;9.10;;
40637;SDS011;26336;44.696;10.622;2023-03-23T01:37:14;12.50;;;9.70;;
40637;SDS011;26336;44.696;10.622;2023-03-23T01:40:19;12.60;;;9.40;;
40637;SDS011;26336;44.696;10.622;2023-03-23T01:43:23;14.05;;;10.98;;
40637;SDS011;26336;44.696;10.622;2023-03-23T01:46:28;16.05;;;12.50;;
40637;SDS011;26336;44.696;10.622;2023-03-23T01:49:40;18.20;;;14.57;;
40637;SDS011;26336;44.696;10.622;2023-03-23T01:52:51;16.95;;;13.23;;
40637;SDS011;26336;44.696;10.622;2023-03-23T01:55:57;18.38;;;12.45;;
40637;SDS011;26336;44.696;10.622;2023-03-23T01:59:02;18.45;;;13.88;;
40637;SDS011;26336;44.696;10.622;2023-03-23T02:02:07;17.13;;;13.25;;
40637;SDS011;26336;44.696;10.622;2023-03-23T02:05:12;14.07;;;10.45;;
40637;SDS011;26336;44.696;10.622;2023-03-23T02:08:20;14.80;;;11.38;;
40637;SDS011;26336;44.696;10.622;2023-03-23T02:11:26;12.13;;;10.40;;
40637;SDS011;26336;44.696;10.622;2023-03-23T02:14:30;11.05;;;9.32;;
40637;SDS011;26336;44.696;10.622;2023-03-23T02:28:16;13.45;;;9.88;;
40637;SDS011;26336;44.696;10.622;2023-03-23T02:35:08;13.30;;;10.50;;
40637;SDS011;26336;44.696;10.622;2023-03-23T02:38:30;13.63;;;11.18;;
40637;SDS011;26336;44.696;10.622;2023-03-23T02:41:43;14.52;;;11.85;;
40637;SDS011;26336;44.696;10.622;2023-03-23T02:44:52;15.13;;;11.80;;
40637;SDS011;26336;44.696;10.622;2023-03-23T02:47:58;11.77;;;10.57;;
40637;SDS011;26336;44.696;10.622;2023-03-23T02:51:05;11.18;;;9.70;;
40637;SDS011;26336;44.696;10.622;2023-03-23T02:54:11;12.02;;;9.23;;
40637;SDS011;26336;44.696;10.622;2023-03-23T02:57:16;9.63;;;8.30;;
40637;SDS011;26336;44.696;10.622;2023-03-23T03:00:22;12.00;;;8.27;;
40637;SDS011;26336;44.696;10.622;2023-03-23T03:03:28;8.85;;;7.07;;
40637;SDS011;26336;44.696;10.622;2023-03-23T03:06:40;7.38;;;6.20;;
40637;SDS011;26336;44.696;10.622;2023-03-23T03:10:01;7.65;;;6.70;;
40637;SDS011;26336;44.696;10.622;2023-03-23T03:16:45;7.10;;;6.40;;
40637;SDS011;26336;44.696;10.622;2023-03-23T03:20:02;7.05;;;6.28;;
40637;SDS011;26336;44.696;10.622;2023-03-23T03:23:11;8.13;;;6.28;;
40637;SDS011;26336;44.696;10.622;2023-03-23T03:26:19;5.90;;;5.30;;
40637;SDS011;26336;44.696;10.622;2023-03-23T03:29:32;6.20;;;5.05;;
40637;SDS011;26336;44.696;10.622;2023-03-23T03:32:48;6.95;;;5.60;;
40637;SDS011;26336;44.696;10.622;2023-03-23T03:35:57;6.93;;;5.40;;
40637;SDS011;26336;44.696;10.622;2023-03-23T03:39:07;6.80;;;5.18;;
40637;SDS011;26336;44.696;10.622;2023-03-23T03:42:13;6.05;;;5.00;;
40637;SDS011;26336;44.696;10.622;2023-03-23T03:45:18;6.28;;;5.13;;
40637;SDS011;26336;44.696;10.622;2023-03-23T03:48:24;6.85;;;5.85;;
40637;SDS011;26336;44.696;10.622;2023-03-23T03:51:28;8.60;;;5.97;;
40637;SDS011;26336;44.696;10.622;2023-03-23T03:54:32;7.20;;;5.90;;
40637;SDS011;26336;44.696;10.622;2023-03-23T03:57:37;6.40;;;5.38;;
40637;SDS011;26336;44.696;10.622;2023-03-23T04:00:41;7.55;;;5.55;;
40637;SDS011;26336;44.696;10.622;2023-03-23T04:03:46;7.47;;;6.10;;
40637;SDS011;26336;44.696;10.622;2023-03-23T04:07:03;9.80;;;5.82;;
40637;SDS011;26336;44.696;10.622;2023-03-23T04:10:10;6.88;;;5.72;;
40637;SDS011;26336;44.696;10.622;2023-03-23T04:13:18;6.00;;;5.40;;
40637;SDS011;26336;44.696;10.622;2023-03-23T04:16:41;5.97;;;5.30;;
40637;SDS011;26336;44.696;10.622;2023-03-23T04:19:47;6.20;;;4.93;;
40637;SDS011;26336;44.696;10.622;2023-03-23T04:22:52;6.15;;;4.80;;
40637;SDS011;26336;44.696;10.622;2023-03-23T04:25:59;6.90;;;4.97;;
40637;SDS011;26336;44.696;10.622;2023-03-23T04:29:10;7.07;;;5.13;;
40637;SDS011;26336;44.696;10.622;2023-03-23T04:32:35;7.75;;;5.55;;
40637;SDS011;26336;44.696;10.622;2023-03-23T04:35:44;5.63;;;4.82;;
40637;SDS011;26336;44.696;10.622;2023-03-23T04:38:55;8.25;;;5.05;;
40637;SDS011;26336;44.696;10.622;2023-03-23T04:42:01;6.45;;;5.10;;
40637;SDS011;26336;44.696;10.622;2023-03-23T04:45:25;7.35;;;5.57;;
40637;SDS011;26336;44.696;10.622;2023-03-23T04:48:30;6.35;;;5.15;;
40637;SDS011;26336;44.696;10.622;2023-03-23T04:51:45;7.65;;;5.45;;
40637;SDS011;26336;44.696;10.622;2023-03-23T04:55:13;6.55;;;4.43;;
40637;SDS011;26336;44.696;10.622;2023-03-23T04:58:20;6.10;;;4.30;;
40637;SDS011;26336;44.696;10.622;2023-03-23T05:01:43;8.18;;;4.15;;
40637;SDS011;26336;44.696;10.622;2023-03-23T05:04:56;6.97;;;4.22;;
40637;SDS011;26336;44.696;10.622;2023-03-23T05:08:03;5.75;;;4.18;;
40637;SDS011;26336;44.696;10.622;2023-03-23T05:11:11;6.30;;;3.88;;
40637;SDS011;26336;44.696;10.622;2023-03-23T05:14:18;6.88;;;4.03;;
40637;SDS011;26336;44.696;10.622;2023-03-23T05:17:31;5.68;;;3.42;;
40637;SDS011;26336;44.696;10.622;2023-03-23T05:20:37;5.70;;;3.53;;
40637;SDS011;26336;44.696;10.622;2023-03-23T05:23:46;5.07;;;3.63;;
40637;SDS011;26336;44.696;10.622;2023-03-23T05:27:00;4.13;;;3.25;;
40637;SDS011;26336;44.696;10.622;2023-03-23T05:30:11;6.15;;;4.10;;
40637;SDS011;26336;44.696;10.622;2023-03-23T05:33:20;5.38;;;3.60;;
40637;SDS011;26336;44.696;10.622;2023-03-23T05:36:35;4.00;;;3.25;;
40637;SDS011;26336;44.696;10.622;2023-03-23T05:39:48;6.28;;;3.78;;
40637;SDS011;26336;44.696;10.622;2023-03-23T05:42:56;6.55;;;4.10;;
40637;SDS011;26336;44.696;10.622;2023-03-23T05:46:11;5.00;;;3.80;;
40637;SDS011;26336;44.696;10.622;2023-03-23T05:49:16;6.40;;;4.28;;
40637;SDS011;26336;44.696;10.622;2023-03-23T05:52:21;5.88;;;3.40;;
40637;SDS011;26336;44.696;10.622;2023-03-23T05:55:27;7.53;;;3.47;;
40637;SDS011;26336;44.696;10.622;2023-03-23T05:58:42;6.32;;;4.18;;
40637;SDS011;26336;44.696;10.622;2023-03-23T06:01:47;3.90;;;3.50;;
40637;SDS011;26336;44.696;10.622;2023-03-23T06:04:51;7.95;;;4.22;;
40637;SDS011;26336;44.696;10.622;2023-03-23T06:08:05;4.93;;;3.88;;
40637;SDS011;26336;44.696;10.622;2023-03-23T06:11:11;7.15;;;3.97;;
40637;SDS011;26336;44.696;10.622;2023-03-23T06:14:21;6.63;;;4.20;;
40637;SDS011;26336;44.696;10.622;2023-03-23T06:17:26;5.57;;;3.95;;
40637;SDS011;26336;44.696;10.622;2023-03-23T06:20:31;6.20;;;4.40;;
40637;SDS011;26336;44.696;10.622;2023-03-23T06:23:39;4.63;;;3.72;;
40637;SDS011;26336;44.696;10.622;2023-03-23T06:26:43;5.50;;;3.92;;
40637;SDS011;26336;44.696;10.622;2023-03-23T06:29:52;7.28;;;3.75;;
40637;SDS011;26336;44.696;10.622;2023-03-23T06:33:00;4.55;;;3.85;;
40637;SDS011;26336;44.696;10.622;2023-03-23T06:36:24;5.43;;;3.47;;
40637;SDS011;26336;44.696;10.622;2023-03-23T06:39:48;7.03;;;4.28;;
40637;SDS011;26336;44.696;10.622;2023-03-23T06:43:00;5.65;;;4.38;;
40637;SDS011;26336;44.696;10.622;2023-03-23T06:46:16;8.93;;;4.35;;
40637;SDS011;26336;44.696;10.622;2023-03-23T06:49:20;6.30;;;4.50;;
40637;SDS011;26336;44.696;10.622;2023-03-23T06:52:33;6.80;;;4.90;;
40637;SDS011;26336;44.696;10.622;2023-03-23T06:55:37;6.47;;;4.97;;
40637;SDS011;26336;44.696;10.622;2023-03-23T06:58:41;8.95;;;5.88;;
40637;SDS011;26336;44.696;10.622;2023-03-23T07:01:46;6.65;;;5.00;;
40637;SDS011;26336;44.696;10.622;2023-03-23T07:04:52;6.82;;;5.10;;
40637;SDS011;26336;44.696;10.622;2023-03-23T07:08:00;10.93;;;6.07;;
40637;SDS011;26336;44.696;10.622;2023-03-23T07:11:13;8.13;;;6.00;;
40637;SDS011;26336;44.696;10.622;2023-03-23T07:14:17;7.55;;;6.05;;
40637;SDS011;26336;44.696;10.622;2023-03-23T07:17:21;9.98;;;5.68;;
40637;SDS011;26336;44.696;10.622;2023-03-23T07:20:51;8.82;;;5.32;;
40637;SDS011;26336;44.696;10.622;2023-03-23T07:24:01;9.63;;;6.00;;
40637;SDS011;26336;44.696;10.622;2023-03-23T07:27:25;9.02;;;5.43;;
40637;SDS011;26336;44.696;10.622;2023-03-23T07:30:32;7.57;;;5.05;;
40637;SDS011;26336;44.696;10.622;2023-03-23T07:33:36;9.23;;;6.00;;
40637;SDS011;26336;44.696;10.622;2023-03-23T07:36:41;7.50;;;5.32;;
40637;SDS011;26336;44.696;10.622;2023-03-23T07:39:47;9.18;;;6.35;;
40637;SDS011;26336;44.696;10.622;2023-03-23T07:42:54;10.02;;;6.90;;
40637;SDS011;26336;44.696;10.622;2023-03-23T07:46:19;10.70;;;6.93;;
40637;SDS011;26336;44.696;10.622;2023-03-23T07:52:49;9.73;;;6.43;;
40637;SDS011;26336;44.696;10.622;2023-03-23T07:56:04;9.20;;;6.55;;
40637;SDS011;26336;44.696;10.622;2023-03-23T07:59:41;11.38;;;7.32;;
40637;SDS011;26336;44.696;10.622;2023-03-23T08:02:46;9.07;;;6.65;;
40637;SDS011;26336;44.696;10.622;2023-03-23T08:06:03;13.25;;;7.93;;
40637;SDS011;26336;44.696;10.622;2023-03-23T08:09:32;12.32;;;8.27;;
40637;SDS011;26336;44.696;10.622;2023-03-23T08:12:56;12.93;;;7.63;;
40637;SDS011;26336;44.696;10.622;2023-03-23T08:16:21;13.32;;;8.20;;
40637;SDS011;26336;44.696;10.622;2023-03-23T08:19:43;14.57;;;8.82;;
40637;SDS011;26336;44.696;10.622;2023-03-23T08:23:03;15.93;;;9.10;;
40637;SDS011;26336;44.696;10.622;2023-03-23T08:26:26;15.57;;;8.80;;
40637;SDS011;26336;44.696;10.622;2023-03-23T08:29:50;15.13;;;8.90;;
40637;SDS011;26336;44.696;10.622;2023-03-23T08:33:29;15.00;;;8.25;;
40637;SDS011;26336;44.696;10.622;2023-03-23T08:36:53;15.48;;;9.50;;
40637;SDS011;26336;44.696;10.622;2023-03-23T08:40:22;18.45;;;9.20;;
40637;SDS011;26336;44.696;10.622;2023-03-23T08:43:55;15.38;;;9.07;;
40637;SDS011;26336;44.696;10.622;2023-03-23T08:47:12;15.52;;;9.70;;
40637;SDS011;26336;44.696;10.622;2023-03-23T08:50:31;17.67;;;10.77;;
40637;SDS011;26336;44.696;10.622;2023-03-23T08:53:51;19.42;;;10.10;;
40637;SDS011;26336;44.696;10.622;2023-03-23T08:57:07;15.27;;;9.68;;
40637;SDS011;26336;44.696;10.622;2023-03-23T09:00:30;18.80;;;9.63;;
40637;SDS011;26336;44.696;10.622;2023-03-23T09:04:08;16.15;;;10.13;;
40637;SDS011;26336;44.696;10.622;2023-03-23T09:07:30;16.52;;;10.63;;
40637;SDS011;26336;44.696;10.622;2023-03-23T09:10:34;15.23;;;9.63;;
40637;SDS011;26336;44.696;10.622;2023-03-23T09:13:38;14.63;;;9.15;;
40637;SDS011;26336;44.696;10.622;2023-03-23T09:16:43;17.75;;;9.90;;
40637;SDS011;26336;44.696;10.622;2023-03-23T09:19:48;18.33;;;10.00;;
40637;SDS011;26336;44.696;10.622;2023-03-23T09:22:53;19.60;;;11.68;;
40637;SDS011;26336;44.696;10.622;2023-03-23T09:26:01;17.38;;;9.95;;
40637;SDS011;26336;44.696;10.622;2023-03-23T09:29:07;18.73;;;10.90;;
40637;SDS011;26336;44.696;10.622;2023-03-23T09:32:11;18.83;;;11.02;;
40637;SDS011;26336;44.696;10.622;2023-03-23T09:35:16;19.65;;;11.95;;
40637;SDS011;26336;44.696;10.622;2023-03-23T09:38:20;16.08;;;9.63;;
40637;SDS011;26336;44.696;10.622;2023-03-23T09:44:44;17.38;;;10.18;;
40637;SDS011;26336;44.696;10.622;2023-03-23T09:48:03;15.40;;;9.90;;
40637;SDS011;26336;44.696;10.622;2023-03-23T09:54:58;16.25;;;10.65;;
40637;SDS011;26336;44.696;10.622;2023-03-23T09:58:21;17.85;;;11.55;;
40637;SDS011;26336;44.696;10.622;2023-03-23T10:01:37;18.30;;;12.00;;
40637;SDS011;26336;44.696;10.622;2023-03-23T10:04:50;23.35;;;13.75;;
40637;SDS011;26336;44.696;10.622;2023-03-23T10:07:58;19.42;;;12.80;;
40637;SDS011;26336;44.696;10.622;2023-03-23T10:11:04;17.75;;;12.02;;
40637;SDS011;26336;44.696;10.622;2023-03-23T10:14:19;21.45;;;14.30;;
40637;SDS011;26336;44.696;10.622;2023-03-23T10:17:30;17.45;;;12.65;;
40637;SDS011;26336;44.696;10.622;2023-03-23T10:27:57;15.48;;;8.52;;
40637;SDS011;26336;44.696;10.622;2023-03-23T10:30:37;14.23;;;8.90;;
40637;SDS011;26336;44.696;10.622;2023-03-23T10:33:51;11.90;;;8.20;;
40637;SDS011;26336;44.696;10.622;2023-03-23T10:37:11;11.02;;;8.05;;
40637;SDS011;26336;44.696;10.622;2023-03-23T10:40:23;11.18;;;8.90;;
40637;SDS011;26336;44.696;10.622;2023-03-23T10:43:30;11.75;;;7.93;;
40637;SDS011;26336;44.696;10.622;2023-03-23T10:50:03;15.63;;;10.20;;
40637;SDS011;26336;44.696;10.622;2023-03-23T10:53:43;14.63;;;9.95;;
40637;SDS011;26336;44.696;10.622;2023-03-23T10:56:46;14.80;;;9.55;;
40637;SDS011;26336;44.696;10.622;2023-03-23T10:59:50;14.38;;;10.32;;
40637;SDS011;26336;44.696;10.622;2023-03-23T11:03:02;15.13;;;11.63;;
40637;SDS011;26336;44.696;10.622;2023-03-23T11:06:09;14.95;;;11.15;;
40637;SDS011;26336;44.696;10.622;2023-03-23T11:09:39;21.92;;;13.38;;
40637;SDS011;26336;44.696;10.622;2023-03-23T11:12:59;18.60;;;13.00;;
40637;SDS011;26336;44.696;10.622;2023-03-23T11:16:04;16.60;;;12.80;;
40637;SDS011;26336;44.696;10.622;2023-03-23T11:19:20;15.30;;;12.40;;
40637;SDS011;26336;44.696;10.622;2023-03-23T11:22:35;20.10;;;13.77;;
40637;SDS011;26336;44.696;10.622;2023-03-23T11:29:26;19.42;;;13.07;;
40637;SDS011;26336;44.696;10.622;2023-03-23T11:32:32;18.10;;;11.32;;
40637;SDS011;26336;44.696;10.622;2023-03-23T11:35:36;14.93;;;11.90;;
40637;SDS011;26336;44.696;10.622;2023-03-23T11:38:39;16.38;;;10.30;;
40637;SDS011;26336;44.696;10.622;2023-03-23T11:41:43;13.00;;;8.13;;
40637;SDS011;26336;44.696;10.622;2023-03-23T11:44:48;16.42;;;9.82;;
40637;SDS011;26336;44.696;10.622;2023-03-23T11:51:38;15.27;;;9.05;;
40637;SDS011;26336;44.696;10.622;2023-03-23T11:54:57;16.60;;;10.95;;
40637;SDS011;26336;44.696;10.622;2023-03-23T11:58:24;15.18;;;11.65;;
40637;SDS011;26336;44.696;10.622;2023-03-23T12:11:58;14.55;;;11.05;;
40637;SDS011;26336;44.696;10.622;2023-03-23T12:32:39;23.50;;;17.58;;
40637;SDS011;26336;44.696;10.622;2023-03-23T12:35:43;25.40;;;18.17;;
40637;SDS011;26336;44.696;10.622;2023-03-23T12:46:06;18.17;;;14.02;;
40637;SDS011;26336;44.696;10.622;2023-03-23T12:56:12;17.30;;;11.73;;
40637;SDS011;26336;44.696;10.622;2023-03-23T13:02:38;16.40;;;10.38;;
40637;SDS011;26336;44.696;10.622;2023-03-23T13:06:07;13.38;;;9.70;;
40637;SDS011;26336;44.696;10.622;2023-03-23T13:09:35;12.60;;;8.70;;
40637;SDS011;26336;44.696;10.622;2023-03-23T13:12:57;9.45;;;7.10;;
40637;SDS011;26336;44.696;10.622;2023-03-23T13:16:11;12.38;;;8.65;;
40637;SDS011;26336;44.696;10.622;2023-03-23T13:22:50;15.27;;;8.73;;
40637;SDS011;26336;44.696;10.622;2023-03-23T13:26:08;9.40;;;7.25;;
40637;SDS011;26336;44.696;10.622;2023-03-23T13:29:19;12.43;;;9.68;;
40637;SDS011;26336;44.696;10.622;2023-03-23T13:32:35;11.85;;;8.55;;
40637;SDS011;26336;44.696;10.622;2023-03-23T13:35:41;14.38;;;10.00;;
40637;SDS011;26336;44.696;10.622;2023-03-23T13:38:48;12.43;;;9.23;;
40637;SDS011;26336;44.696;10.622;2023-03-23T13:48:44;14.65;;;9.48;;
40637;SDS011;26336;44.696;10.622;2023-03-23T13:51:59;16.05;;;10.70;;
40637;SDS011;26336;44.696;10.622;2023-03-23T13:58:25;15.93;;;10.35;;
40637;SDS011;26336;44.696;10.622;2023-03-23T14:01:37;6.95;;;5.38;;
40637;SDS011;26336;44.696;10.622;2023-03-23T14:04:45;16.67;;;10.02;;
40637;SDS011;26336;44.696;10.622;2023-03-23T14:14:29;16.30;;;10.80;;
40637;SDS011;26336;44.696;10.622;2023-03-23T14:17:40;22.45;;;12.60;;
40637;SDS011;26336;44.696;10.622;2023-03-23T14:20:49;20.00;;;11.25;;
40637;SDS011;26336;44.696;10.622;2023-03-23T14:23:53;15.27;;;9.95;;
40637;SDS011;26336;44.696;10.622;2023-03-23T14:27:08;16.10;;;10.07;;
40637;SDS011;26336;44.696;10.622;2023-03-23T14:30:19;13.77;;;9.30;;
40637;SDS011;26336;44.696;10.622;2023-03-23T14:33:25;14.52;;;10.82;;
40637;SDS011;26336;44.696;10.622;2023-03-23T14:36:30;14.60;;;10.15;;
40637;SDS011;26336;44.696;10.622;2023-03-23T14:39:38;15.40;;;9.93;;
40637;SDS011;26336;44.696;10.622;2023-03-23T14:42:45;14.55;;;10.65;;
40637;SDS011;26336;44.696;10.622;2023-03-23T14:45:53;16.80;;;11.25;;
40637;SDS011;26336;44.696;10.622;2023-03-23T14:48:59;15.57;;;9.40;;
40637;SDS011;26336;44.696;10.622;2023-03-23T14:52:10;15.70;;;9.65;;
40637;SDS011;26336;44.696;10.622;2023-03-23T14:55:17;15.05;;;9.80;;
40637;SDS011;26336;44.696;10.622;2023-03-23T14:58:37;13.63;;;9.40;;
40637;SDS011;26336;44.696;10.622;2023-03-23T15:01:43;12.30;;;9.27;;
40637;SDS011;26336;44.696;10.622;2023-03-23T15:04:50;18.65;;;11.50;;
40637;SDS011;26336;44.696;10.622;2023-03-23T15:08:05;18.17;;;12.00;;
40637;SDS011;26336;44.696;10.622;2023-03-23T15:14:22;17.00;;;11.07;;
40637;SDS011;26336;44.696;10.622;2023-03-23T15:17:35;16.75;;;10.18;;
40637;SDS011;26336;44.696;10.622;2023-03-23T15:20:48;16.02;;;11.10;;
40637;SDS011;26336;44.696;10.622;2023-03-23T15:23:52;15.05;;;10.57;;
40637;SDS011;26336;44.696;10.622;2023-03-23T15:27:10;17.90;;;10.30;;
40637;SDS011;26336;44.696;10.622;2023-03-23T15:33:26;20.42;;;12.00;;
40637;SDS011;26336;44.696;10.622;2023-03-23T15:36:36;19.98;;;14.07;;
40637;SDS011;26336;44.696;10.622;2023-03-23T15:39:40;19.48;;;12.75;;
40637;SDS011;26336;44.696;10.622;2023-03-23T15:42:46;20.95;;;13.57;;
40637;SDS011;26336;44.696;10.622;2023-03-23T15:45:55;21.83;;;13.35;;
40637;SDS011;26336;44.696;10.622;2023-03-23T15:52:03;21.48;;;13.98;;
40637;SDS011;26336;44.696;10.622;2023-03-23T15:58:47;19.05;;;14.23;;
40637;SDS011;26336;44.696;10.622;2023-03-23T16:01:52;19.98;;;12.95;;
40637;SDS011;26336;44.696;10.622;2023-03-23T16:04:56;22.23;;;14.90;;
40637;SDS011;26336;44.696;10.622;2023-03-23T16:08:00;16.10;;;11.43;;
40637;SDS011;26336;44.696;10.622;2023-03-23T16:11:04;26.45;;;17.38;;
40637;SDS011;26336;44.696;10.622;2023-03-23T16:14:09;25.20;;;16.42;;
40637;SDS011;26336;44.696;10.622;2023-03-23T16:17:18;25.25;;;16.02;;
40637;SDS011;26336;44.696;10.622;2023-03-23T16:20:23;22.33;;;14.00;;
40637;SDS011;26336;44.696;10.622;2023-03-23T16:23:27;23.88;;;15.40;;
40637;SDS011;26336;44.696;10.622;2023-03-23T16:26:32;25.40;;;16.05;;
40637;SDS011;26336;44.696;10.622;2023-03-23T16:29:36;24.17;;;16.20;;
40637;SDS011;26336;44.696;10.622;2023-03-23T16:32:44;21.48;;;14.35;;
40637;SDS011;26336;44.696;10.622;2023-03-23T16:35:54;17.60;;;12.80;;
40637;SDS011;26336;44.696;10.622;2023-03-23T16:39:01;21.10;;;13.98;;
40637;SDS011;26336;44.696;10.622;2023-03-23T16:42:05;26.15;;;15.35;;
40637;SDS011;26336;44.696;10.622;2023-03-23T16:45:10;22.90;;;15.45;;
40637;SDS011;26336;44.696;10.622;2023-03-23T16:48:15;25.98;;;15.45;;
40637;SDS011;26336;44.696;10.622;2023-03-23T16:51:19;25.98;;;16.98;;
40637;SDS011;26336;44.696;10.622;2023-03-23T16:54:24;20.58;;;13.63;;
40637;SDS011;26336;44.696;10.622;2023-03-23T16:57:28;19.90;;;13.25;;
40637;SDS011;26336;44.696;10.622;2023-03-23T17:00:32;18.33;;;11.93;;
40637;SDS011;26336;44.696;10.622;2023-03-23T17:03:36;24.33;;;16.27;;
40637;SDS011;26336;44.696;10.622;2023-03-23T17:06:42;25.08;;;15.60;;
40637;SDS011;26336;44.696;10.622;2023-03-23T17:09:46;23.10;;;15.07;;
40637;SDS011;26336;44.696;10.622;2023-03-23T17:12:55;25.40;;;15.70;;
40637;SDS011;26336;44.696;10.622;2023-03-23T17:15:59;25.58;;;14.77;;
40637;SDS011;26336;44.696;10.622;2023-03-23T17:19:04;20.88;;;13.10;;
40637;SDS011;26336;44.696;10.622;2023-03-23T17:22:12;16.98;;;12.50;;
40637;SDS011;26336;44.696;10.622;2023-03-23T17:25:19;23.25;;;14.23;;
40637;SDS011;26336;44.696;10.622;2023-03-23T17:28:23;23.73;;;14.25;;
40637;SDS011;26336;44.696;10.622;2023-03-23T17:31:28;19.70;;;14.23;;
40637;SDS011;26336;44.696;10.622;2023-03-23T17:34:36;19.80;;;12.98;;
40637;SDS011;26336;44.696;10.622;2023-03-23T17:37:41;18.50;;;11.95;;
40637;SDS011;26336;44.696;10.622;2023-03-23T17:40:45;19.48;;;12.45;;
40637;SDS011;26336;44.696;10.622;2023-03-23T17:43:50;22.20;;;12.82;;
40637;SDS011;26336;44.696;10.622;2023-03-23T17:46:58;25.25;;;13.15;;
40637;SDS011;26336;44.696;10.622;2023-03-23T17:50:05;21.13;;;12.40;;
40637;SDS011;26336;44.696;10.622;2023-03-23T17:53:14;17.92;;;11.98;;
40637;SDS011;26336;44.696;10.622;2023-03-23T17:56:19;20.02;;;12.85;;
40637;SDS011;26336;44.696;10.622;2023-03-23T17:59:25;21.83;;;12.90;;
40637;SDS011;26336;44.696;10.622;2023-03-23T18:02:36;21.00;;;12.63;;
40637;SDS011;26336;44.696;10.622;2023-03-23T18:05:40;18.02;;;12.32;;
40637;SDS011;26336;44.696;10.622;2023-03-23T18:08:44;19.38;;;13.07;;
40637;SDS011;26336;44.696;10.622;2023-03-23T18:11:51;22.35;;;12.30;;
40637;SDS011;26336;44.696;10.622;2023-03-23T18:14:58;21.48;;;13.75;;
40637;SDS011;26336;44.696;10.622;2023-03-23T18:18:03;21.90;;;13.10;;
40637;SDS011;26336;44.696;10.622;2023-03-23T18:21:08;25.55;;;13.32;;
40637;SDS011;26336;44.696;10.622;2023-03-23T18:24:13;18.92;;;12.85;;
40637;SDS011;26336;44.696;10.622;2023-03-23T18:27:17;19.38;;;12.88;;
40637;SDS011;26336;44.696;10.622;2023-03-23T18:30:21;24.92;;;13.13;;
40637;SDS011;26336;44.696;10.622;2023-03-23T18:33:25;21.08;;;12.43;;
40637;SDS011;26336;44.696;10.622;2023-03-23T18:36:29;21.23;;;10.95;;
40637;SDS011;26336;44.696;10.622;2023-03-23T18:39:33;25.95;;;15.60;;
40637;SDS011;26336;44.696;10.622;2023-03-23T18:42:37;22.45;;;14.02;;
40637;SDS011;26336;44.696;10.622;2023-03-23T18:49:15;26.33;;;13.55;;
40637;SDS011;26336;44.696;10.622;2023-03-23T18:52:20;25.52;;;14.93;;
40637;SDS011;26336;44.696;10.622;2023-03-23T18:55:24;27.38;;;16.33;;
40637;SDS011;26336;44.696;10.622;2023-03-23T18:58:28;28.42;;;16.05;;
40637;SDS011;26336;44.696;10.622;2023-03-23T19:01:32;29.20;;;16.70;;
40637;SDS011;26336;44.696;10.622;2023-03-23T19:04:36;26.65;;;16.38;;
40637;SDS011;26336;44.696;10.622;2023-03-23T19:07:41;25.92;;;15.15;;
40637;SDS011;26336;44.696;10.622;2023-03-23T19:10:45;27.25;;;15.82;;
40637;SDS011;26336;44.696;10.622;2023-03-23T19:13:50;22.10;;;16.15;;
40637;SDS011;26336;44.696;10.622;2023-03-23T19:16:54;25.52;;;16.73;;
40637;SDS011;26336;44.696;10.622;2023-03-23T19:19:59;26.15;;;16.90;;
40637;SDS011;26336;44.696;10.622;2023-03-23T19:23:03;25.70;;;16.67;;
40637;SDS011;26336;44.696;10.622;2023-03-23T19:26:07;28.40;;;17.50;;
40637;SDS011;26336;44.696;10.622;2023-03-23T19:29:13;26.63;;;17.08;;
40637;SDS011;26336;44.696;10.622;2023-03-23T19:32:18;23.20;;;16.27;;
40637;SDS011;26336;44.696;10.622;2023-03-23T19:35:23;25.63;;;16.98;;
40637;SDS011;26336;44.696;10.622;2023-03-23T19:38:27;29.38;;;17.30;;
40637;SDS011;26336;44.696;10.622;2023-03-23T19:41:31;26.13;;;17.10;;
40637;SDS011;26336;44.696;10.622;2023-03-23T19:44:36;27.25;;;18.17;;
40637;SDS011;26336;44.696;10.622;2023-03-23T19:47:40;25.75;;;17.02;;
40637;SDS011;26336;44.696;10.622;2023-03-23T19:50:45;29.60;;;17.80;;
40637;SDS011;26336;44.696;10.622;2023-03-23T19:53:53;26.85;;;17.50;;
40637;SDS011;26336;44.696;10.622;2023-03-23T19:56:59;24.90;;;17.45;;
40637;SDS011;26336;44.696;10.622;2023-03-23T20:00:03;29.45;;;18.00;;
40637;SDS011;26336;44.696;10.622;2023-03-23T20:03:11;27.25;;;17.48;;
40637;SDS011;26336;44.696;10.622;2023-03-23T20:06:15;26.02;;;17.90;;
40637;SDS011;26336;44.696;10.622;2023-03-23T20:09:23;29.55;;;18.75;;
40637;SDS011;26336;44.696;10.622;2023-03-23T20:12:27;25.10;;;19.15;;
40637;SDS011;26336;44.696;10.622;2023-03-23T20:15:31;26.73;;;18.35;;
40637;SDS011;26336;44.696;10.622;2023-03-23T20:18:36;25.60;;;18.63;;
40637;SDS011;26336;44.696;10.622;2023-03-23T20:21:40;23.13;;;17.10;;
40637;SDS011;26336;44.696;10.622;2023-03-23T20:24:44;22.77;;;17.15;;
40637;SDS011;26336;44.696;10.622;2023-03-23T20:27:49;27.65;;;19.52;;
40637;SDS011;26336;44.696;10.622;2023-03-23T20:31:03;27.45;;;20.35;;